MST,Max TemperatureF,Mean TemperatureF,Min TemperatureF,Max Dew PointF,MeanDew PointF,Min DewpointF,Max Humidity, Mean Humidity, Min Humidity, Max Sea Level PressureIn, Mean Sea Level PressureIn, Min Sea Level PressureIn, Max VisibilityMiles, Mean VisibilityMiles, Min VisibilityMiles, Max Wind SpeedMPH, Mean Wind SpeedMPH, Max Gust SpeedMPH,PrecipitationIn, CloudCover, Events, WindDirDegrees
2011-12-1,31,23,14,23,19,14,96,85,69,30.70,30.47,29.94,10,10,10,17,7,23,0.00,4,,236
2011-12-2,36,31,25,34,26,17,100,77,65,30.15,29.88,29.64,10,10,8,23,14,29,T,5,Rain-Snow,273
2011-12-3,28,21,13,27,19,9,100,82,64,30.27,30.09,29.91,10,7,2,14,7,24,0.02,5,Snow,277
2011-12-4,28,12,-5,23,9,-6,87,73,59,30.74,30.41,29.99,10,10,8,23,16,33,T,6,Snow,337
2011-12-5,16,3,-11,7,-5,-15,100,83,70,30.71,30.48,30.19,10,9,1,7,3,,0.00,3,,51
2011-12-6,38,20,2,30,16,0,87,76,61,30.13,30.02,29.91,10,10,10,17,6,24,0.00,2,,272
2011-12-7,35,20,5,27,19,0,86,78,69,30.40,30.23,30.12,10,6,1,14,8,,0.01,7,Snow,308
2011-12-8,12,3,-7,2,-3,-11,83,74,67,30.43,30.38,30.21,10,10,10,14,7,,0.00,2,,257
2011-12-9,17,2,-13,12,-4,-17,92,84,74,30.44,30.29,30.19,10,8,0,12,2,,0.00,3,Fog,258
2011-12-10,42,26,9,27,17,8,96,82,57,30.18,30.00,29.87,10,10,10,12,5,,0.00,0,,247
2011-12-11,34,23,11,22,18,10,96,83,64,30.24,30.05,29.87,10,10,10,13,5,,0.00,1,,250
2011-12-12,24,19,13,21,19,12,93,90,84,30.38,30.30,30.19,10,8,5,13,6,,0.00,7,,97
2011-12-13,26,25,23,22,21,19,88,86,80,30.23,30.05,29.82,10,10,8,12,6,,0.00,8,,183
2011-12-14,28,22,15,23,20,13,100,89,72,30.24,29.89,29.74,10,5,0,17,7,23,T,7,Fog-Snow,249
2011-12-15,23,12,1,20,14,1,93,86,78,30.33,30.25,30.14,10,9,2,9,5,,T,6,Snow,69
2011-12-16,28,21,14,25,18,12,100,91,80,30.38,30.27,30.17,10,7,1,10,3,,0.00,5,,245
2011-12-17,32,20,7,27,17,7,100,91,79,30.27,30.05,29.81,10,8,1,7,2,,0.00,0,,258
2011-12-18,45,30,14,31,20,12,96,83,53,30.27,29.92,29.70,10,8,1,20,3,29,0.00,1,,304
2011-12-19,34,22,9,23,17,8,96,82,66,30.41,30.24,30.01,10,10,10,8,4,,0.00,0,,227
2011-12-20,39,28,16,34,26,17,100,80,62,29.95,29.78,29.70,10,10,10,13,6,,T,3,Rain,252
2011-12-21,35,24,13,34,24,9,100,85,66,30.44,30.04,29.76,10,8,1,21,9,28,0.02,7,Rain-Snow,301
2011-12-22,30,19,7,20,14,6,92,80,64,30.44,30.30,30.11,10,10,10,13,5,,0.00,2,,240
2011-12-23,37,27,16,25,18,13,84,72,59,30.21,30.14,29.97,10,10,10,14,8,,0.00,0,,252
2011-12-24,39,29,19,28,22,17,100,75,62,30.41,30.27,30.15,10,10,10,16,8,,0.00,0,,251
2011-12-25,36,25,14,29,21,12,96,89,76,30.39,30.11,29.77,10,10,10,7,3,,0.00,0,,290
2011-12-26,41,33,24,30,24,20,84,67,55,30.18,29.97,29.69,10,10,10,32,16,43,0.00,2,,273
2011-12-27,42,29,16,27,22,15,93,78,51,30.14,29.93,29.73,10,10,10,12,3,,0.00,2,,275
2011-12-28,50,35,19,35,28,19,92,80,56,29.85,29.67,29.52,10,10,10,16,6,,T,2,,261
2011-12-29,47,36,25,37,31,24,100,85,59,29.78,29.55,29.35,10,10,5,29,10,41,0.06,5,Rain,285
2011-12-30,46,37,27,32,28,24,93,81,45,29.84,29.64,29.49,10,10,10,9,5,,0.00,2,,147
2011-12-31,40,34,28,30,21,12,82,63,47,30.39,30.00,29.52,10,10,10,22,11,32,0.00,3,,281